LFSN

Nancy-Essey Airport

Airport
ICAO code
LFSN
IATA Code
ENC
Summary
ICAO Region
EUR
ICAO Territory
Location

, Lorraine

Serving
Nancy
Elevation
751 ft
Coordinates
48° 41' 31" N , 6° 13' 50" E
Metar
LFSN 041100Z AUTO VRB02KT 9999 BKN017 OVC024 07/04 Q1012

Runways

Designator Length Width Surface Rops
3/21 1400 40 ASP Yes/Yes

Airport map

Aerial View

SKYbrary Partners:

Safety knowledge contributed by: